• Join FlightAware (Why Join?)
  • Login
  • US Flag 
01:52PM EDT


 

Airport Tracker/Info


-or-


 

Live Flight TrackerFlight Track Log ✈ CTL22 ✈ 2013-Apr-16 ✈ KAZO - KBKL

Flight Track Log - Related Links

Times and Time Zones

All times are in EDT time to prevent confusion due to time zone crossing. See the CTL22 flight status page for this flight to view local times or setup timezone preferences in your user account.

Time Position Orientation Groundspeed Altitude Reporting Facility
EDT Latitude Longitude Course Direction KTS MPH feet Rate Location/Type
07:58PM 42.2103 -85.4036 115° Southeast 151 174 3,900  Level Chicago Center
07:59PM 42.1917 -85.3494 115° Southeast 157 181 4,600 660 Climbing Chicago Center
08:00PM 42.1672 -85.2839 117° Southeast 161 185 5,300 600 Climbing Chicago Center
08:01PM 42.1650 -85.1398 103° East  Level Estimated
08:01PM 42.1483 -85.2308 116° Southeast 159 183 5,900  Level Chicago Center
08:02PM 42.1533 -85.0713 103° East  Level Estimated
08:02PM 42.1306 -85.1764 114° Southeast 159 183 6,900  Level Chicago Center
08:03PM 42.1172 -85.1283 110° East 142 163 7,100 60 Climbing Chicago Center
08:04PM 42.0967 -85.0783 119° Southeast 149 171 7,100 -60 Level Chicago Center
08:05PM 42.0778 -85.0247 115° Southeast 156 180 7,000 -180 Descending Chicago Center
08:06PM 42.0675 -84.9858 110° East 119 137 6,800  Descending Chicago Center
08:07PM 42.0489 -84.9244 112° Southeast 141 162 7,100 180 Climbing Chicago Center
08:08PM 42.0261 -84.8611 116° Southeast 175 201 7,200 60 Climbing Chicago Center
08:09PM 42.0117 -84.7958 107° East 182 209 7,300 -60 Climbing Chicago Center
08:10PM 41.9906 -84.7303 113° Southeast 188 216 7,100 -240 Descending Chicago Center
08:11PM 41.9692 -84.6631 113° Southeast 193 222 6,900 -180 Descending Chicago Center
08:12PM 41.9453 -84.5972 116° Southeast 195 224 6,800 120 Descending Chicago Center
08:13PM 41.9192 -84.5378 121° Southeast 187 215 7,200 180 Climbing Chicago Center
08:14PM 41.8900 -84.4647 118° Southeast 185 213 7,200 -60 Level Chicago Center
08:15PM 41.8578 -84.4133 130° Southeast 186 214 7,100  Descending Chicago Center
08:16PM 41.8328 -84.3544 120° Southeast 186 214 7,200  Climbing Chicago Center
08:17PM 41.8094 -84.2919 117° Southeast 186 214 7,200 -60 Level Chicago Center
08:18PM 41.7850 -84.2314 118° Southeast 185 213 7,100  Descending Chicago Center
08:19PM 41.7622 -84.1669 115° Southeast 189 217 7,200 60 Climbing Chicago Center